Time;durP1;ratioP1;P1;durP2;ratioP2;P2;SDS_P1;SDS_P2;PMS_P1;PMS_P2;Temp;Humidity;BMP_temperature;BMP_pressure;BME280_temperature;BME280_humidity;BME280_pressure;Samples;Min_cycle;Max_cycle;Signal;HPM_P1;HPM_P2
2023/01/01 00:02:26;;;;;;;;;;;;;;;8.68;71.77;101468.53;5413963;32;35046;-76
2023/01/01 00:05:37;;;;;;;;;;;;;;;8.60;71.35;101461.66;5394651;32;34759;-68
2023/01/01 00:08:39;;;;;;;;;;;;;;;8.45;71.37;101457.50;5404637;32;34796;-67
2023/01/01 00:11:41;;;;;;;;;;;;;;;8.43;72.19;101461.88;5393305;32;37205;-82
2023/01/01 00:14:43;;;;;;;;;;;;;;;8.78;70.54;101463.16;5382461;32;34985;-83
2023/01/01 00:17:45;;;;;;;;;;;;;;;8.19;72.50;101475.28;5412060;32;35125;-68
2023/01/01 00:20:47;;;;;;;;;;;;;;;8.59;71.04;101466.03;5396128;32;45789;-82
2023/01/01 00:23:49;;;;;;;;;;;;;;;8.32;72.62;101461.16;5409034;32;36130;-69
2023/01/01 00:26:51;;;;;;;;;;;;;;;8.70;71.08;101451.94;5383017;32;34738;-69
2023/01/01 00:29:53;;;;;;;;;;;;;;;8.33;71.92;101461.13;5399629;32;35810;-83
2023/01/01 00:32:55;;;;;;;;;;;;;;;8.70;70.37;101446.69;5404103;32;35370;-68
2023/01/01 00:35:57;;;;;;;;;;;;;;;8.44;71.16;101458.41;5393303;32;34268;-68
2023/01/01 00:39:00;;;;;;;;;;;;;;;8.14;72.23;101464.84;5396983;32;34401;-68
2023/01/01 00:42:02;;;;;;;;;;;;;;;8.13;72.65;101460.50;5396261;32;35496;-68
2023/01/01 00:45:04;;;;;;;;;;;;;;;8.04;73.54;101466.69;5399375;32;35282;-75
2023/01/01 00:48:06;;;;;;;;;;;;;;;8.47;71.36;101474.06;5394330;32;35531;-82
2023/01/01 00:51:08;;;;;;;;;;;;;;;8.94;68.19;101462.91;5384304;32;35563;-68
2023/01/01 00:54:10;;;;;;;;;;;;;;;8.25;71.65;101457.72;5388238;32;34954;-83
2023/01/01 00:57:12;;;;;;;;;;;;;;;7.89;73.53;101472.09;5393935;32;35246;-68
2023/01/01 01:00:17;;;;;;;;;;;;;;;7.93;74.20;101465.09;5413273;32;34884;-69
2023/01/01 01:03:28;;;;;;;;;;;;;;;7.84;73.98;101471.28;5393800;32;45060;-68
2023/01/01 01:06:30;;;;;;;;;;;;;;;7.37;75.99;101470.00;5412007;32;35929;-69
2023/01/01 01:09:32;;;;;;;;;;;;;;;7.06;77.44;101466.75;5397819;32;35354;-83
2023/01/01 01:12:34;;;;;;;;;;;;;;;7.35;75.91;101460.44;5397480;32;35179;-68
2023/01/01 01:15:36;;;;;;;;;;;;;;;7.77;74.18;101464.37;5407543;32;35015;-68
2023/01/01 01:18:38;;;;;;;;;;;;;;;7.62;74.52;101472.41;5396321;32;34669;-82
2023/01/01 01:21:40;;;;;;;;;;;;;;;8.18;71.69;101466.56;5412035;32;35902;-82
2023/01/01 01:24:42;;;;;;;;;;;;;;;7.31;75.39;101464.81;5392174;32;35214;-83
2023/01/01 01:27:44;;;;;;;;;;;;;;;8.20;71.63;101470.00;5413356;32;34400;-83
2023/01/01 01:30:46;;;;;;;;;;;;;;;7.82;71.55;101466.06;5395915;32;37743;-81
2023/01/01 01:33:48;;;;;;;;;;;;;;;6.12;79.95;101481.22;5392248;32;35140;-82
2023/01/01 01:36:52;;;;;;;;;;;;;;;5.17;84.62;101473.50;5408614;32;34344;-82
2023/01/01 01:39:54;;;;;;;;;;;;;;;6.13;82.42;101476.00;5396428;32;35426;-75
2023/01/01 01:42:55;;;;;;;;;;;;;;;6.37;81.50;101481.97;5414022;32;34682;-76
2023/01/01 01:45:58;;;;;;;;;;;;;;;7.13;78.64;101471.06;5395160;32;35096;-68
2023/01/01 01:49:02;;;;;;;;;;;;;;;7.13;77.43;101467.59;5409515;32;35600;-83
2023/01/01 01:52:04;;;;;;;;;;;;;;;6.64;78.09;101460.09;5376620;32;35448;-68
2023/01/01 01:55:06;;;;;;;;;;;;;;;6.70;79.30;101465.28;5393141;32;34728;-68
2023/01/01 01:58:08;;;;;;;;;;;;;;;6.75;79.65;101463.47;5412862;32;35179;-82
2023/01/01 02:01:10;;;;;;;;;;;;;;;7.03;77.80;101467.66;5393136;32;36425;-82
2023/01/01 02:04:12;;;;;;;;;;;;;;;6.82;78.07;101475.62;5412214;32;35209;-68
2023/01/01 02:07:14;;;;;;;;;;;;;;;7.04;77.18;101469.41;5395333;32;35671;-82
2023/01/01 02:10:16;;;;;;;;;;;;;;;6.93;77.83;101465.13;5407621;32;43883;-69
2023/01/01 02:13:18;;;;;;;;;;;;;;;7.36;75.77;101463.03;5399304;32;35343;-68
2023/01/01 02:16:23;;;;;;;;;;;;;;;6.98;77.34;101465.97;5395231;32;34342;-84
2023/01/01 02:19:29;;;;;;;;;;;;;;;6.80;78.87;101461.72;5412453;32;35273;-83
2023/01/01 02:22:32;;;;;;;;;;;;;;;6.87;78.87;101475.59;5395752;32;36708;-68
2023/01/01 02:25:48;;;;;;;;;;;;;;;6.55;81.31;101470.56;5409621;32;34855;-68
2023/01/01 02:28:59;;;;;;;;;;;;;;;6.98;79.54;101466.81;5395157;32;44452;-67
2023/01/01 02:32:02;;;;;;;;;;;;;;;7.18;79.23;101474.50;5393849;32;34370;-82
2023/01/01 02:35:57;;;;;;;;;;;;;;;6.77;78.63;101495.72;5405662;32;35195;-82
2023/01/01 02:38:53;;;;;;;;;;;;;;;7.26;78.27;101497.97;5388339;32;35707;-69
2023/01/01 02:41:55;;;;;;;;;;;;;;;6.47;82.10;101494.13;5412351;32;35276;-68
2023/01/01 02:44:57;;;;;;;;;;;;;;;7.10;79.94;101481.56;5397049;32;35781;-68
2023/01/01 02:48:06;;;;;;;;;;;;;;;6.74;80.77;101491.34;5392888;32;34846;-82
2023/01/01 02:51:27;;;;;;;;;;;;;;;7.23;78.87;101491.03;5397337;32;35067;-82
2023/01/01 02:54:29;;;;;;;;;;;;;;;7.18;79.01;101489.34;5379209;32;37453;-76
2023/01/01 02:57:41;;;;;;;;;;;;;;;6.84;79.00;101489.56;5414304;32;35463;-68
2023/01/01 03:00:46;;;;;;;;;;;;;;;7.02;79.27;101481.63;5395761;32;35967;-68
2023/01/01 03:04:07;;;;;;;;;;;;;;;7.21;77.89;101469.28;5396588;32;45254;-81
2023/01/01 03:07:27;;;;;;;;;;;;;;;6.74;78.93;101480.03;5410899;32;35352;-82
2023/01/01 03:11:02;;;;;;;;;;;;;;;6.85;79.68;101474.75;5378650;32;34565;-76
2023/01/01 03:14:05;;;;;;;;;;;;;;;6.26;80.82;101476.81;5380061;32;34290;-68
2023/01/01 03:17:13;;;;;;;;;;;;;;;6.48;80.47;101474.97;5402090;32;35298;-68
2023/01/01 03:20:23;;;;;;;;;;;;;;;6.26;80.18;101473.34;5395147;32;35525;-82
2023/01/01 03:23:26;;;;;;;;;;;;;;;6.07;82.74;101475.16;5410604;32;43118;-83
2023/01/01 03:26:30;;;;;;;;;;;;;;;5.39;84.56;101474.34;5395239;32;35033;-82
2023/01/01 03:29:32;;;;;;;;;;;;;;;5.92;83.16;101478.66;5413686;32;35731;-83
2023/01/01 03:33:02;;;;;;;;;;;;;;;5.60;83.53;101486.50;5393588;32;35460;-68
2023/01/01 03:36:13;;;;;;;;;;;;;;;5.81;82.31;101480.41;5392222;32;35024;-69
2023/01/01 03:39:17;;;;;;;;;;;;;;;5.42;84.58;101471.75;5411170;32;35136;-68
2023/01/01 03:42:28;;;;;;;;;;;;;;;6.36;80.77;101464.56;5395437;32;44454;-68
2023/01/01 03:45:32;;;;;;;;;;;;;;;6.61;80.11;101470.53;5410551;32;35604;-67
2023/01/01 03:48:54;;;;;;;;;;;;;;;6.36;79.40;101470.66;5397430;32;35132;-75
2023/01/01 03:52:30;;;;;;;;;;;;;;;7.28;75.83;101465.72;5376827;32;34695;-67
2023/01/01 03:55:40;;;;;;;;;;;;;;;7.11;76.17;101478.06;5408929;32;34717;-67
2023/01/01 03:58:48;;;;;;;;;;;;;;;7.24;75.41;101468.38;5395709;32;35433;-82
2023/01/01 04:01:56;;;;;;;;;;;;;;;6.26;80.74;101471.59;5402345;32;44860;-83
2023/01/01 04:04:58;;;;;;;;;;;;;;;6.15;81.11;101465.53;5407579;32;34890;-68
2023/01/01 04:08:01;;;;;;;;;;;;;;;6.00;81.68;101468.22;5397202;32;34864;-67
2023/01/01 04:12:00;;;;;;;;;;;;;;;6.48;79.04;101469.75;5411902;32;34916;-68
2023/01/01 04:14:28;;;;;;;;;;;;;;;6.46;77.61;101471.50;5395241;32;35934;-67
2023/01/01 04:17:30;;;;;;;;;;;;;;;6.27;80.23;101470.72;5410771;32;34714;-69
2023/01/01 04:20:31;;;;;;;;;;;;;;;5.85;82.75;101464.72;5399592;32;35961;-83
2023/01/01 04:23:33;;;;;;;;;;;;;;;6.22;82.17;101472.47;5397028;32;35183;-76
2023/01/01 04:26:35;;;;;;;;;;;;;;;6.46;79.74;101471.50;5413905;32;34776;-77
2023/01/01 04:29:40;;;;;;;;;;;;;;;6.89;78.49;101474.75;5380787;32;34197;-75
2023/01/01 04:32:42;;;;;;;;;;;;;;;7.62;75.05;101465.41;5412415;32;35310;-83
2023/01/01 04:35:44;;;;;;;;;;;;;;;6.40;78.38;101471.53;5393083;32;34974;-67
2023/01/01 04:38:46;;;;;;;;;;;;;;;6.38;81.16;101466.31;5389165;32;44929;-83
2023/01/01 04:41:48;;;;;;;;;;;;;;;6.55;80.47;101471.44;5403215;32;45176;-68
2023/01/01 04:44:50;;;;;;;;;;;;;;;6.30;80.73;101461.97;5396071;32;34694;-82
2023/01/01 04:47:52;;;;;;;;;;;;;;;6.04;83.16;101465.56;5400244;32;35337;-85
2023/01/01 04:50:54;;;;;;;;;;;;;;;6.16;83.07;101472.50;5368840;32;35320;-68
2023/01/01 04:53:57;;;;;;;;;;;;;;;5.80;83.63;101479.53;5391609;32;34304;-82
2023/01/01 04:56:59;;;;;;;;;;;;;;;6.32;82.11;101478.53;5379241;32;35010;-82
2023/01/01 05:00:02;;;;;;;;;;;;;;;6.65;80.79;101482.72;5404240;32;33596;-82
2023/01/01 05:03:04;;;;;;;;;;;;;;;6.17;81.10;101485.53;5406474;32;34722;-82
2023/01/01 05:06:07;;;;;;;;;;;;;;;6.08;80.67;101484.69;5392604;32;35011;-83
2023/01/01 05:09:09;;;;;;;;;;;;;;;6.98;80.16;101482.50;5413588;32;35153;-68
2023/01/01 05:12:11;;;;;;;;;;;;;;;6.41;82.02;101483.69;5394738;32;34682;-67
2023/01/01 05:15:13;;;;;;;;;;;;;;;6.22;82.57;101482.91;5410311;32;34783;-68
2023/01/01 05:18:15;;;;;;;;;;;;;;;6.22;81.87;101486.38;5397955;32;36627;-84
2023/01/01 05:21:24;;;;;;;;;;;;;;;6.80;80.39;101477.41;5401942;32;43536;-68
2023/01/01 05:24:26;;;;;;;;;;;;;;;6.73;79.27;101466.12;5406266;32;35108;-69
2023/01/01 05:27:28;;;;;;;;;;;;;;;6.64;80.04;101473.16;5396752;32;34696;-83
2023/01/01 05:30:30;;;;;;;;;;;;;;;6.65;80.54;101474.88;5398584;32;35013;-67
2023/01/01 05:33:32;;;;;;;;;;;;;;;6.93;80.37;101472.97;5392187;32;34682;-82
2023/01/01 05:36:37;;;;;;;;;;;;;;;6.78;79.20;101474.78;5409078;32;34464;-68
2023/01/01 05:39:39;;;;;;;;;;;;;;;5.98;82.19;101478.63;5391528;32;34911;-83
2023/01/01 05:42:41;;;;;;;;;;;;;;;6.76;81.36;101484.41;5401377;32;34894;-68
2023/01/01 05:45:43;;;;;;;;;;;;;;;6.70;80.12;101494.03;5410306;32;34906;-84
2023/01/01 05:48:45;;;;;;;;;;;;;;;6.56;81.31;101494.06;5381468;32;35320;-67
2023/01/01 05:51:47;;;;;;;;;;;;;;;6.85;80.46;101485.22;5391011;32;44744;-69
2023/01/01 05:54:49;;;;;;;;;;;;;;;6.79;80.50;101486.12;5395501;32;35190;-81
2023/01/01 05:57:51;;;;;;;;;;;;;;;6.86;78.66;101487.81;5412566;32;35848;-67
2023/01/01 06:00:53;;;;;;;;;;;;;;;7.30;79.04;101499.69;5396416;32;34739;-67
2023/01/01 06:03:56;;;;;;;;;;;;;;;7.38;77.82;101510.97;5397658;32;34920;-82
2023/01/01 06:06:58;;;;;;;;;;;;;;;6.84;80.45;101514.84;5409493;32;35945;-78
2023/01/01 06:09:59;;;;;;;;;;;;;;;6.70;81.58;101507.09;5394264;32;34791;-68
2023/01/01 06:13:01;;;;;;;;;;;;;;;6.67;80.47;101499.25;5413473;32;35478;-67
2023/01/01 06:16:10;;;;;;;;;;;;;;;6.92;76.99;101526.97;5393677;32;35520;-67
2023/01/01 06:19:14;;;;;;;;;;;;;;;5.96;82.74;101543.00;5408679;32;34790;-82
2023/01/01 06:22:16;;;;;;;;;;;;;;;5.94;85.99;101544.75;5393090;32;34740;-68
2023/01/01 06:25:18;;;;;;;;;;;;;;;5.83;85.61;101549.97;5394427;32;46809;-66
2023/01/01 06:28:19;;;;;;;;;;;;;;;5.12;87.84;101566.44;5413043;32;35438;-83
2023/01/01 06:31:22;;;;;;;;;;;;;;;6.25;85.03;101563.84;5394235;32;34308;-83
2023/01/01 06:34:24;;;;;;;;;;;;;;;6.07;84.29;101566.50;5406347;32;34947;-67
2023/01/01 06:37:26;;;;;;;;;;;;;;;5.82;86.16;101556.03;5391816;32;34558;-85
2023/01/01 06:40:28;;;;;;;;;;;;;;;6.07;83.67;101571.72;5409065;32;35716;-82
2023/01/01 06:43:31;;;;;;;;;;;;;;;6.30;84.30;101569.03;5395748;32;34560;-86
2023/01/01 06:46:34;;;;;;;;;;;;;;;6.58;83.00;101569.84;5396096;32;34789;-82
2023/01/01 06:49:36;;;;;;;;;;;;;;;6.37;84.98;101555.94;5397395;32;34850;-68
2023/01/01 06:52:38;;;;;;;;;;;;;;;6.62;81.82;101569.78;5374836;32;34875;-69
2023/01/01 06:55:46;;;;;;;;;;;;;;;6.40;85.62;101573.38;5396869;32;34484;-82
2023/01/01 06:58:57;;;;;;;;;;;;;;;6.40;81.49;101576.84;5394121;32;33767;-68
2023/01/01 07:01:59;;;;;;;;;;;;;;;6.87;82.00;101578.41;5403000;32;34652;-83
2023/01/01 07:05:01;;;;;;;;;;;;;;;6.66;81.54;101575.87;5404647;32;35277;-82
2023/01/01 07:08:03;;;;;;;;;;;;;;;7.10;80.95;101574.81;5394893;32;35368;-68
2023/01/01 07:11:05;;;;;;;;;;;;;;;7.12;81.61;101562.59;5412416;32;35040;-76
2023/01/01 07:14:07;;;;;;;;;;;;;;;6.85;81.92;101554.03;5394544;32;35522;-68
2023/01/01 07:17:09;;;;;;;;;;;;;;;6.77;80.90;101566.28;5415098;32;35322;-69
2023/01/01 07:20:11;;;;;;;;;;;;;;;6.10;83.07;101556.03;5399512;32;36642;-83
2023/01/01 07:23:13;;;;;;;;;;;;;;;6.60;83.59;101568.94;5405162;32;35268;-67
2023/01/01 07:26:15;;;;;;;;;;;;;;;6.81;82.27;101565.34;5408801;32;35138;-83
2023/01/01 07:29:17;;;;;;;;;;;;;;;6.39;82.80;101576.84;5396743;32;44549;-68
2023/01/01 07:32:18;;;;;;;;;;;;;;;6.91;82.45;101563.59;5412956;32;35631;-69
2023/01/01 07:35:20;;;;;;;;;;;;;;;6.65;81.95;101559.34;5394325;32;34388;-82
2023/01/01 07:38:23;;;;;;;;;;;;;;;6.56;81.48;101566.34;5409658;32;35145;-67
2023/01/01 07:41:24;;;;;;;;;;;;;;;6.07;84.28;101566.50;5398916;32;34694;-83
2023/01/01 07:44:26;;;;;;;;;;;;;;;7.01;81.18;101567.88;5389495;32;34591;-69
2023/01/01 07:47:28;;;;;;;;;;;;;;;7.03;80.91;101577.44;5407271;32;35236;-75
2023/01/01 07:50:31;;;;;;;;;;;;;;;6.86;81.35;101576.66;5386727;32;35494;-67
2023/01/01 07:53:33;;;;;;;;;;;;;;;6.85;79.62;101577.53;5402757;32;34325;-77
2023/01/01 07:56:35;;;;;;;;;;;;;;;7.55;78.27;101584.09;5396631;32;35437;-69
2023/01/01 07:59:37;;;;;;;;;;;;;;;7.02;80.29;101583.56;5411949;32;34719;-69
2023/01/01 08:02:39;;;;;;;;;;;;;;;7.06;78.87;101593.09;5399831;32;34194;-85
2023/01/01 08:05:41;;;;;;;;;;;;;;;6.89;77.49;101618.47;5388844;32;35413;-67
2023/01/01 08:08:43;;;;;;;;;;;;;;;6.72;81.23;101599.37;5410225;32;35165;-69
2023/01/01 08:11:45;;;;;;;;;;;;;;;6.86;80.90;101608.03;5397434;32;34663;-69
2023/01/01 08:14:46;;;;;;;;;;;;;;;7.19;80.51;101608.72;5412028;32;45163;-82
2023/01/01 08:17:48;;;;;;;;;;;;;;;7.33;79.40;101617.34;5396218;32;35790;-68
2023/01/01 08:20:50;;;;;;;;;;;;;;;7.18;82.30;101633.16;5413458;32;35059;-83
2023/01/01 08:23:52;;;;;;;;;;;;;;;7.24;79.62;101622.66;5397707;32;35075;-67
2023/01/01 08:26:54;;;;;;;;;;;;;;;7.63;79.92;101621.53;5403591;32;34565;-84
2023/01/01 08:29:56;;;;;;;;;;;;;;;7.88;78.82;101640.53;5408020;32;35133;-68
2023/01/01 08:32:58;;;;;;;;;;;;;;;6.92;80.85;101641.09;5378053;32;35479;-67
2023/01/01 08:36:00;;;;;;;;;;;;;;;7.32;81.69;101639.16;5403814;32;34854;-82
2023/01/01 08:39:02;;;;;;;;;;;;;;;7.32;79.65;101634.78;5386883;32;36462;-67
2023/01/01 08:42:04;;;;;;;;;;;;;;;7.51;80.42;101630.31;5414004;32;34833;-83
2023/01/01 08:45:13;;;;;;;;;;;;;;;7.60;79.34;101639.87;5401607;32;34916;-83
2023/01/01 08:48:14;;;;;;;;;;;;;;;7.85;77.44;101635.28;5398453;32;35323;-83
2023/01/01 08:51:16;;;;;;;;;;;;;;;8.13;76.82;101634.19;5397975;32;43810;-70
2023/01/01 08:54:18;;;;;;;;;;;;;;;8.85;75.12;101628.22;5392579;32;35497;-68
2023/01/01 08:57:20;;;;;;;;;;;;;;;8.00;76.58;101624.72;5414616;32;35497;-68
2023/01/01 09:00:22;;;;;;;;;;;;;;;7.41;78.21;101631.28;5395605;32;35811;-82
2023/01/01 09:03:25;;;;;;;;;;;;;;;8.65;75.17;101620.59;5410836;32;34461;-84
2023/01/01 09:06:27;;;;;;;;;;;;;;;7.90;77.53;101633.53;5392055;32;35096;-76
2023/01/01 09:09:29;;;;;;;;;;;;;;;8.31;76.16;101624.44;5395739;32;34353;-83
2023/01/01 09:12:32;;;;;;;;;;;;;;;8.36;75.54;101620.03;5412269;32;34902;-68
2023/01/01 09:15:34;;;;;;;;;;;;;;;8.47;75.24;101626.03;5355362;32;860189;-69
2023/01/01 09:18:36;;;;;;;;;;;;;;;9.81;69.13;101619.87;5412224;32;34889;-68
2023/01/01 09:21:38;;;;;;;;;;;;;;;8.20;73.42;101639.38;5397759;32;34834;-76
2023/01/01 09:24:40;;;;;;;;;;;;;;;7.53;78.25;101648.62;5410607;32;34833;-67
2023/01/01 09:27:42;;;;;;;;;;;;;;;8.25;77.55;101642.84;5396809;32;35291;-69
2023/01/01 09:30:43;;;;;;;;;;;;;;;8.37;76.07;101640.09;5395811;32;35081;-67
2023/01/01 09:33:45;;;;;;;;;;;;;;;8.59;75.75;101631.13;5409299;32;35393;-68
2023/01/01 09:36:47;;;;;;;;;;;;;;;8.50;74.48;101639.12;5393309;32;45040;-81
2023/01/01 09:39:49;;;;;;;;;;;;;;;8.86;74.34;101644.81;5398075;32;35156;-82
2023/01/01 09:42:55;;;;;;;;;;;;;;;9.22;69.24;101623.37;5396849;32;35793;-83
2023/01/01 09:46:00;;;;;;;;;;;;;;;8.21;73.64;101628.00;5410216;32;34146;-77
2023/01/01 09:49:04;;;;;;;;;;;;;;;7.45;77.10;101640.81;5397998;32;35321;-67
2023/01/01 09:52:08;;;;;;;;;;;;;;;7.13;79.49;101633.16;5373955;32;34314;-68
2023/01/01 09:55:12;;;;;;;;;;;;;;;7.04;80.07;101634.09;5413111;32;35509;-81
2023/01/01 09:58:14;;;;;;;;;;;;;;;8.35;75.44;101627.03;5394555;32;35068;-82
2023/01/01 10:01:28;;;;;;;;;;;;;;;8.06;75.72;101627.28;5399170;32;34486;-83
2023/01/01 10:04:42;;;;;;;;;;;;;;;7.38;80.13;101628.66;5396576;32;34217;-82
2023/01/01 10:07:47;;;;;;;;;;;;;;;7.74;77.91;101637.16;5398840;32;34421;-68
2023/01/01 10:11:01;;;;;;;;;;;;;;;8.04;76.97;101631.66;5412159;32;44624;-82
2023/01/01 10:14:05;;;;;;;;;;;;;;;7.53;79.55;101643.37;5394254;32;35467;-82
2023/01/01 10:17:20;;;;;;;;;;;;;;;7.73;77.43;101645.84;5411060;32;35009;-69
2023/01/01 10:20:24;;;;;;;;;;;;;;;7.45;78.52;101640.81;5396001;32;44685;-67
2023/01/01 10:23:26;;;;;;;;;;;;;;;7.42;80.32;101640.00;5401975;32;34757;-83
2023/01/01 10:26:29;;;;;;;;;;;;;;;8.05;77.59;101632.50;5405928;32;35080;-69
2023/01/01 10:29:33;;;;;;;;;;;;;;;8.45;76.85;101621.69;5393556;32;35953;-70
2023/01/01 10:32:35;;;;;;;;;;;;;;;8.64;74.08;101618.84;5409530;32;35214;-80
2023/01/01 10:35:48;;;;;;;;;;;;;;;8.77;73.88;101622.22;5392427;32;34517;-77
2023/01/01 10:38:50;;;;;;;;;;;;;;;8.47;76.16;101615.56;5405692;32;45237;-67
2023/01/01 10:41:51;;;;;;;;;;;;;;;8.25;76.77;101603.53;5397246;32;34801;-67
2023/01/01 10:44:53;;;;;;;;;;;;;;;7.78;76.68;101612.69;5393881;32;34281;-82
2023/01/01 10:48:14;;;;;;;;;;;;;;;7.43;80.52;101620.78;5411072;32;34824;-68
2023/01/01 10:51:16;;;;;;;;;;;;;;;7.21;82.30;101612.19;5369281;32;43673;-81
2023/01/01 10:54:27;;;;;;;;;;;;;;;7.61;81.76;101610.22;5394954;32;35206;-83
2023/01/01 10:57:33;;;;;;;;;;;;;;;8.45;78.87;101606.84;5384225;32;35734;-68
2023/01/01 11:00:35;;;;;;;;;;;;;;;8.47;76.93;101599.81;5403205;32;35757;-82
2023/01/01 11:03:51;;;;;;;;;;;;;;;7.96;78.13;101602.06;5409661;32;35028;-83
2023/01/01 11:06:53;;;;;;;;;;;;;;;8.02;79.63;101586.28;5396289;32;45057;-67
2023/01/01 11:09:56;;;;;;;;;;;;;;;8.02;79.30;101586.28;5413055;32;34652;-69
2023/01/01 11:13:13;;;;;;;;;;;;;;;8.24;79.05;101571.22;5396608;32;34924;-76
2023/01/01 11:16:15;;;;;;;;;;;;;;;8.48;78.43;101559.63;5407651;32;34716;-68
2023/01/01 11:19:25;;;;;;;;;;;;;;;8.44;77.00;101544.84;5399949;32;46047;-69
2023/01/01 11:22:40;;;;;;;;;;;;;;;8.82;77.04;101544.38;5396972;32;34339;-85
2023/01/01 11:25:48;;;;;;;;;;;;;;;8.87;75.20;101533.81;5411285;32;35470;-68
2023/01/01 11:28:59;;;;;;;;;;;;;;;9.83;72.11;101520.91;5394159;32;44816;-82
2023/01/01 11:32:01;;;;;;;;;;;;;;;8.95;72.68;101539.78;5409470;32;35285;-68
2023/01/01 11:35:05;;;;;;;;;;;;;;;8.98;74.42;101546.78;5396733;32;35235;-67
2023/01/01 11:38:14;;;;;;;;;;;;;;;9.13;73.63;101550.03;5394180;32;34872;-69
2023/01/01 11:41:16;;;;;;;;;;;;;;;8.60;77.17;101564.72;5413572;32;34324;-69
2023/01/01 11:44:23;;;;;;;;;;;;;;;8.28;77.81;101548.50;5397061;32;44942;-83
2023/01/01 11:47:31;;;;;;;;;;;;;;;8.07;81.98;101557.44;5414292;32;34703;-84
2023/01/01 11:50:35;;;;;;;;;;;;;;;8.99;76.32;101541.50;5388221;32;35488;-82
2023/01/01 11:53:40;;;;;;;;;;;;;;;9.67;73.59;101529.06;5390374;32;35675;-68
2023/01/01 11:56:42;;;;;;;;;;;;;;;9.51;73.31;101538.06;5409298;32;34807;-68
2023/01/01 11:59:52;;;;;;;;;;;;;;;9.52;74.41;101537.19;5394208;32;35492;-68
2023/01/01 12:03:14;;;;;;;;;;;;;;;9.91;73.48;101522.50;5407107;32;44637;-67
2023/01/01 12:06:28;;;;;;;;;;;;;;;10.14;70.61;101506.31;5396698;32;36781;-69
2023/01/01 12:09:49;;;;;;;;;;;;;;;8.98;74.09;101497.81;5401647;32;34862;-68
2023/01/01 12:13:10;;;;;;;;;;;;;;;8.64;77.72;101514.03;5400380;32;44603;-83
2023/01/01 12:16:17;;;;;;;;;;;;;;;8.74;77.31;101513.88;5394586;32;33796;-68
2023/01/01 12:19:23;;;;;;;;;;;;;;;10.24;72.84;101507.00;5412764;32;47524;-69
2023/01/01 12:22:25;;;;;;;;;;;;;;;10.76;68.93;101508.59;5397599;32;34218;-69
2023/01/01 12:25:32;;;;;;;;;;;;;;;10.75;69.77;101512.94;5401282;32;34112;-83
2023/01/01 12:28:38;;;;;;;;;;;;;;;10.26;69.05;101508.75;5410100;32;35105;-83
2023/01/01 12:31:47;;;;;;;;;;;;;;;10.61;68.94;101507.13;5387553;32;35478;-69
2023/01/01 12:35:08;;;;;;;;;;;;;;;11.55;64.02;101496.16;5406591;32;45294;-83
2023/01/01 12:38:25;;;;;;;;;;;;;;;11.91;63.30;101490.84;5395047;32;34454;-83
2023/01/01 12:41:47;;;;;;;;;;;;;;;13.67;58.25;101469.62;5399236;32;36180;-68
2023/01/01 12:44:52;;;;;;;;;;;;;;;12.55;60.25;101473.19;5412603;32;44588;-68
2023/01/01 12:47:57;;;;;;;;;;;;;;;11.85;62.48;101485.75;5396488;32;35309;-83
2023/01/01 12:51:18;;;;;;;;;;;;;;;11.82;64.04;101477.94;5394350;32;34431;-83
2023/01/01 12:54:39;;;;;;;;;;;;;;;12.39;62.38;101488.63;5393583;32;44616;-68
2023/01/01 12:57:44;;;;;;;;;;;;;;;11.98;63.99;101494.19;5395583;32;35017;-83
2023/01/01 13:00:56;;;;;;;;;;;;;;;12.80;59.85;101502.34;5413763;32;35885;-82
2023/01/01 13:03:59;;;;;;;;;;;;;;;14.06;55.36;101481.44;5395109;32;35205;-69
2023/01/01 13:07:03;;;;;;;;;;;;;;;10.92;65.84;101506.47;5413051;32;34952;-83
2023/01/01 13:10:28;;;;;;;;;;;;;;;10.14;69.96;101513.34;5395589;32;34903;-69
2023/01/01 13:13:30;;;;;;;;;;;;;;;11.03;67.14;101501.84;5389047;32;34872;-69
2023/01/01 13:16:32;;;;;;;;;;;;;;;9.44;73.06;101508.44;5413885;32;35446;-83
2023/01/01 13:19:39;;;;;;;;;;;;;;;9.49;74.66;101511.87;5384550;32;36126;-69
2023/01/01 13:22:43;;;;;;;;;;;;;;;9.51;73.57;101522.34;5414523;32;35155;-68
2023/01/01 13:25:44;;;;;;;;;;;;;;;9.32;74.96;101513.88;5401379;32;34317;-83
2023/01/01 13:28:59;;;;;;;;;;;;;;;8.25;78.91;101523.22;5408261;32;45489;-83
2023/01/01 13:32:03;;;;;;;;;;;;;;;8.65;79.16;101522.75;5398673;32;34398;-69
2023/01/01 13:35:13;;;;;;;;;;;;;;;8.28;80.43;101525.78;5394449;32;35212;-76
2023/01/01 13:38:48;;;;;;;;;;;;;;;8.15;82.06;101522.44;5412656;32;35773;-82
2023/01/01 13:41:50;;;;;;;;;;;;;;;8.51;81.76;101528.19;5371227;32;35229;-69
2023/01/01 13:44:52;;;;;;;;;;;;;;;8.19;81.61;101530.28;5402776;32;35185;-68
2023/01/01 13:48:12;;;;;;;;;;;;;;;8.74;80.31;101535.72;5409548;32;35535;-83
2023/01/01 13:51:19;;;;;;;;;;;;;;;8.08;81.87;101551.31;5381799;32;34640;-68
2023/01/01 13:54:41;;;;;;;;;;;;;;;8.45;81.40;101532.63;5410250;32;35248;-84
2023/01/01 13:57:55;;;;;;;;;;;;;;;9.15;79.02;101540.41;5397354;32;35140;-68
2023/01/01 14:01:16;;;;;;;;;;;;;;;8.71;78.54;101541.03;5399049;32;34891;-85
2023/01/01 14:04:33;;;;;;;;;;;;;;;8.71;81.62;101553.25;5398069;32;44789;-68
2023/01/01 14:07:35;;;;;;;;;;;;;;;8.03;84.97;101555.72;5396939;32;36520;-77
2023/01/01 14:10:53;;;;;;;;;;;;;;;8.49;83.11;101550.88;5410750;32;44757;-69
2023/01/01 14:13:55;;;;;;;;;;;;;;;8.68;80.69;101560.25;5399042;32;34997;-77
2023/01/01 14:16:58;;;;;;;;;;;;;;;8.55;82.43;101563.06;5395581;32;35261;-68
2023/01/01 14:20:03;;;;;;;;;;;;;;;8.44;83.42;101554.44;5411856;32;35121;-68
2023/01/01 14:23:09;;;;;;;;;;;;;;;8.09;86.21;101551.31;5400662;32;34790;-84
2023/01/01 14:26:12;;;;;;;;;;;;;;;8.19;84.26;101561.69;5417232;32;35520;-68
2023/01/01 14:29:16;;;;;;;;;;;;;;;8.35;85.76;101545.81;5402236;32;34434;-68
2023/01/01 14:32:20;;;;;;;;;;;;;;;8.74;84.57;101542.72;5402479;32;44550;-68
2023/01/01 14:35:22;;;;;;;;;;;;;;;8.15;85.63;101548.63;5402318;32;36274;-69
2023/01/01 14:38:27;;;;;;;;;;;;;;;8.88;83.10;101549.50;5400039;32;35109;-71
2023/01/01 14:41:35;;;;;;;;;;;;;;;7.74;88.82;101561.25;5418996;32;35408;-77
2023/01/01 14:44:41;;;;;;;;;;;;;;;8.09;86.68;101556.53;5403099;32;34491;-76
2023/01/01 14:47:45;;;;;;;;;;;;;;;8.30;88.37;101568.53;5416347;32;35604;-68
2023/01/01 14:50:48;;;;;;;;;;;;;;;7.76;89.59;101556.88;5389474;32;46046;-69
2023/01/01 14:53:50;;;;;;;;;;;;;;;8.63;85.43;101558.56;5397124;32;35015;-83
2023/01/01 14:56:52;;;;;;;;;;;;;;;9.00;82.87;101565.97;5413975;32;35011;-68
2023/01/01 14:59:55;;;;;;;;;;;;;;;8.75;83.87;101562.81;5401256;32;34831;-69
2023/01/01 15:03:04;;;;;;;;;;;;;;;8.44;86.76;101555.34;5415464;32;35736;-69
2023/01/01 15:06:12;;;;;;;;;;;;;;;8.08;88.09;101561.81;5398566;32;34862;-76
2023/01/01 15:09:14;;;;;;;;;;;;;;;8.85;84.97;101559.19;5413446;32;34945;-68
2023/01/01 15:12:17;;;;;;;;;;;;;;;8.59;86.16;101559.53;5403406;32;37518;-80
2023/01/01 15:15:38;;;;;;;;;;;;;;;8.65;85.99;101562.94;5386390;32;34730;-82
2023/01/01 15:18:41;;;;;;;;;;;;;;;8.17;87.41;101568.69;5416740;32;34933;-68
2023/01/01 15:21:43;;;;;;;;;;;;;;;8.79;85.42;101578.47;5399071;32;34615;-84
2023/01/01 15:24:45;;;;;;;;;;;;;;;8.76;84.21;101570.66;5412524;32;33997;-67
2023/01/01 15:27:47;;;;;;;;;;;;;;;9.49;81.78;101568.75;5401747;32;45029;-83
2023/01/01 15:30:53;;;;;;;;;;;;;;;9.39;82.01;101559.25;5404472;32;34372;-68
2023/01/01 15:33:55;;;;;;;;;;;;;;;9.34;82.03;101568.97;5403509;32;35448;-76
2023/01/01 15:37:13;;;;;;;;;;;;;;;9.46;81.94;101577.50;5392979;32;34847;-67
2023/01/01 15:40:15;;;;;;;;;;;;;;;9.30;81.45;101585.66;5413426;32;34685;-69
2023/01/01 15:43:18;;;;;;;;;;;;;;;8.80;83.40;101593.31;5398505;32;44428;-81
2023/01/01 15:46:20;;;;;;;;;;;;;;;9.39;81.15;101578.50;5412224;32;35105;-68
2023/01/01 15:49:26;;;;;;;;;;;;;;;8.53;83.87;101591.03;5400013;32;35478;-68
2023/01/01 15:52:28;;;;;;;;;;;;;;;8.71;86.28;101597.81;5376329;32;34744;-76
2023/01/01 15:55:32;;;;;;;;;;;;;;;9.11;84.37;101592.91;5413789;32;34489;-70
2023/01/01 15:58:38;;;;;;;;;;;;;;;9.07;85.01;101592.06;5398121;32;34897;-82
2023/01/01 16:01:40;;;;;;;;;;;;;;;8.44;86.96;101585.87;5412249;32;34789;-68
2023/01/01 16:04:46;;;;;;;;;;;;;;;8.67;84.49;101597.84;5393170;32;35020;-83